createdAt,value
2018-12-04T00:01:57.191Z,5.03
2018-12-04T00:06:05.418Z,5.00
2018-12-04T00:10:13.716Z,3.07
2018-12-04T00:14:21.967Z,5.10
2018-12-04T00:18:30.441Z,7.70
2018-12-04T00:22:38.789Z,5.40
2018-12-04T00:26:47.080Z,3.73
2018-12-04T00:30:55.364Z,4.40
2018-12-04T00:35:03.747Z,3.47
2018-12-04T00:39:12.019Z,4.40
2018-12-04T00:43:20.731Z,8.20
2018-12-04T00:47:29.039Z,7.60
2018-12-04T00:51:37.311Z,4.67
2018-12-04T00:55:45.782Z,6.20
2018-12-04T00:59:54.217Z,6.87
2018-12-04T01:04:02.490Z,4.50
2018-12-04T01:08:10.884Z,5.10
2018-12-04T01:12:19.375Z,4.30
2018-12-04T01:16:27.618Z,6.97
2018-12-04T01:20:35.912Z,7.87
2018-12-04T01:24:44.240Z,4.93
2018-12-04T01:28:52.871Z,6.30
2018-12-04T01:33:01.119Z,6.13
2018-12-04T01:37:09.466Z,4.40
2018-12-04T01:41:17.847Z,5.23
2018-12-04T01:45:26.156Z,10.30
2018-12-04T01:49:34.724Z,7.03
2018-12-04T01:53:43.071Z,11.47
2018-12-04T01:57:51.494Z,5.50
2018-12-04T02:01:59.787Z,7.60
2018-12-04T02:06:08.130Z,5.93
2018-12-04T02:10:16.609Z,9.33
2018-12-04T02:14:24.925Z,8.37
2018-12-04T02:18:33.249Z,9.67
2018-12-04T02:22:41.549Z,12.50
2018-12-04T02:26:49.865Z,9.90
2018-12-04T02:30:58.220Z,11.40
2018-12-04T02:35:06.641Z,6.50
2018-12-04T02:39:15.065Z,7.63
2018-12-04T02:43:23.391Z,7.63
2018-12-04T02:47:31.698Z,8.20
2018-12-04T02:51:40.000Z,3.63
2018-12-04T02:55:48.277Z,5.23
2018-12-04T02:59:56.750Z,17.07
2018-12-04T03:04:05.212Z,5.40
2018-12-04T03:08:13.527Z,6.20
2018-12-04T03:12:21.800Z,6.97
2018-12-04T03:16:30.104Z,3.60
2018-12-04T03:20:38.433Z,6.53
2018-12-04T03:24:46.825Z,4.17
2018-12-04T03:28:55.204Z,7.53
2018-12-04T03:33:03.674Z,6.73
2018-12-04T03:37:12.015Z,6.80
2018-12-04T03:41:20.362Z,5.87
2018-12-04T03:45:28.682Z,5.70
2018-12-04T03:49:37.000Z,12.93
2018-12-04T03:53:45.359Z,15.03
2018-12-04T03:57:53.672Z,7.17
2018-12-04T04:02:02.018Z,10.10
2018-12-04T04:06:10.357Z,11.97
2018-12-04T04:10:18.756Z,6.43
2018-12-04T04:14:27.083Z,16.23
2018-12-04T04:18:35.737Z,11.73
2018-12-04T04:22:44.031Z,7.63
2018-12-04T04:26:52.650Z,5.27
2018-12-04T04:31:01.300Z,8.80
2018-12-04T04:35:09.611Z,8.83
2018-12-04T04:39:17.992Z,7.53
2018-12-04T04:43:26.337Z,7.87
2018-12-04T04:47:34.773Z,7.10
2018-12-04T04:51:43.195Z,6.60
2018-12-04T04:55:51.526Z,11.33
2018-12-04T04:59:59.915Z,9.77
2018-12-04T05:04:08.314Z,10.27
2018-12-04T05:08:16.584Z,10.67
2018-12-04T05:12:24.956Z,7.30
2018-12-04T05:16:33.136Z,9.43
2018-12-04T05:20:41.458Z,12.77
2018-12-04T05:24:49.770Z,6.05
2018-12-04T05:28:58.068Z,12.20
2018-12-04T05:33:06.381Z,11.50
2018-12-04T05:37:14.662Z,9.50
2018-12-04T05:41:22.944Z,7.57
2018-12-04T05:45:31.209Z,8.90
2018-12-04T05:49:39.667Z,9.43
2018-12-04T05:53:48.052Z,8.13
2018-12-04T05:57:56.352Z,5.70
2018-12-04T06:02:14.997Z,12.70
2018-12-04T06:06:23.334Z,12.00
2018-12-04T06:10:31.613Z,10.30
2018-12-04T06:14:40.060Z,7.90
2018-12-04T06:18:48.347Z,6.63
2018-12-04T06:22:56.611Z,9.63
2018-12-04T06:27:05.403Z,5.47
2018-12-04T06:31:13.733Z,14.53
2018-12-04T06:35:22.504Z,9.17
2018-12-04T06:39:30.470Z,4.30
2018-12-04T06:43:39.105Z,9.33
2018-12-04T06:47:47.389Z,10.67
2018-12-04T06:51:56.173Z,10.30
2018-12-04T06:56:04.456Z,9.90
2018-12-04T07:00:12.748Z,10.13
2018-12-04T07:04:21.062Z,10.40
2018-12-04T07:08:29.485Z,12.10
2018-12-04T07:12:37.812Z,9.70
2018-12-04T07:16:46.161Z,10.73
2018-12-04T07:20:54.462Z,7.07
2018-12-04T07:25:02.869Z,13.60
2018-12-04T07:29:11.183Z,10.25
2018-12-04T07:33:19.439Z,7.43
2018-12-04T07:37:27.744Z,11.87
2018-12-04T07:41:36.036Z,6.40
2018-12-04T07:45:44.360Z,12.13
2018-12-04T07:49:52.673Z,7.40
2018-12-04T07:54:00.979Z,9.33
2018-12-04T07:58:09.258Z,9.57
2018-12-04T08:02:17.593Z,12.00
2018-12-04T08:06:25.866Z,5.95
2018-12-04T08:10:34.201Z,12.67
2018-12-04T08:14:42.490Z,6.57
2018-12-04T08:18:50.798Z,7.40
2018-12-04T08:22:59.103Z,6.33
2018-12-04T08:27:08.097Z,11.60
2018-12-04T08:31:16.388Z,5.87
2018-12-04T08:35:24.740Z,9.33
2018-12-04T08:39:33.054Z,8.67
2018-12-04T08:43:41.329Z,9.87
2018-12-04T08:47:49.649Z,9.37
2018-12-04T08:51:57.975Z,8.58
2018-12-04T08:56:06.334Z,14.13
2018-12-04T09:00:14.658Z,8.67
2018-12-04T09:04:22.986Z,13.27
2018-12-04T09:08:31.275Z,9.60
2018-12-04T09:12:39.580Z,10.77
2018-12-04T09:16:47.895Z,7.23
2018-12-04T09:20:56.224Z,15.93
2018-12-04T09:25:04.754Z,6.13
2018-12-04T09:29:13.052Z,11.70
2018-12-04T09:33:21.317Z,5.30
2018-12-04T09:37:29.675Z,11.93
2018-12-04T09:41:38.116Z,13.50
2018-12-04T09:45:46.411Z,9.97
2018-12-04T09:49:54.678Z,12.37
2018-12-04T09:54:03.032Z,13.93
2018-12-04T09:58:11.345Z,7.63
2018-12-04T10:02:19.709Z,10.83
2018-12-04T10:06:28.070Z,8.93
2018-12-04T10:10:36.381Z,10.73
2018-12-04T10:14:44.679Z,9.50
2018-12-04T10:18:52.988Z,7.20
2018-12-04T10:23:01.333Z,8.47
2018-12-04T10:27:09.650Z,11.50
2018-12-04T10:31:17.937Z,8.73
2018-12-04T10:35:26.278Z,10.20
2018-12-04T10:39:34.644Z,4.13
2018-12-04T10:43:43.110Z,7.97
2018-12-04T10:47:51.429Z,6.83
2018-12-04T10:51:59.867Z,5.30
2018-12-04T10:56:08.226Z,6.77
2018-12-04T11:00:21.887Z,7.87
2018-12-04T11:04:30.185Z,5.87
2018-12-04T11:08:38.475Z,9.70
2018-12-04T11:12:46.762Z,5.40
2018-12-04T11:16:55.040Z,9.03
2018-12-04T11:21:03.353Z,8.10
2018-12-04T11:25:11.646Z,6.10
2018-12-04T11:29:19.993Z,6.13
2018-12-04T11:33:28.369Z,5.80
2018-12-04T11:37:36.657Z,7.10
2018-12-04T11:41:44.951Z,10.40
2018-12-04T11:45:53.262Z,5.30
2018-12-04T11:50:01.644Z,11.93
2018-12-04T11:54:09.973Z,12.03
2018-12-04T11:58:18.251Z,8.37
2018-12-04T12:02:26.557Z,7.67
2018-12-04T12:06:35.096Z,7.17
2018-12-04T12:10:43.482Z,11.70
2018-12-04T12:14:51.781Z,12.57
2018-12-04T12:19:00.082Z,7.53
2018-12-04T12:23:08.338Z,11.70
2018-12-04T12:27:17.598Z,12.93
2018-12-04T12:31:25.919Z,6.63
2018-12-04T12:35:34.244Z,9.60
2018-12-04T12:39:42.621Z,9.80
2018-12-04T12:43:50.964Z,4.77
2018-12-04T12:47:59.252Z,9.37
2018-12-04T12:52:07.581Z,6.70
2018-12-04T12:56:15.910Z,8.70
2018-12-04T13:00:24.287Z,10.53
2018-12-04T13:04:32.647Z,12.23
2018-12-04T13:08:41.005Z,9.63
2018-12-04T13:12:49.327Z,5.43
2018-12-04T13:16:57.616Z,15.97
2018-12-04T13:21:05.934Z,7.13
2018-12-04T13:25:14.257Z,5.20
2018-12-04T13:29:22.575Z,10.27
2018-12-04T13:33:30.848Z,5.67
2018-12-04T13:37:39.180Z,12.20
2018-12-04T13:41:47.487Z,9.87
2018-12-04T13:45:55.811Z,6.50
2018-12-04T13:50:04.628Z,4.70
2018-12-04T13:54:12.925Z,6.07
2018-12-04T13:58:21.360Z,9.47
2018-12-04T14:02:29.630Z,6.43
2018-12-04T14:06:37.948Z,6.37
2018-12-04T14:10:46.228Z,7.10
2018-12-04T14:14:54.614Z,8.83
2018-12-04T14:19:02.932Z,4.23
2018-12-04T14:23:11.263Z,6.13
2018-12-04T14:27:19.571Z,8.10
2018-12-04T14:31:27.873Z,4.33
2018-12-04T14:35:36.264Z,8.47
2018-12-04T14:39:44.975Z,7.03
2018-12-04T14:43:53.283Z,7.80
2018-12-04T14:48:01.559Z,8.30
2018-12-04T14:52:09.863Z,7.87
2018-12-04T14:56:18.165Z,4.53
2018-12-04T15:00:26.471Z,12.80
2018-12-04T15:04:34.823Z,8.83
2018-12-04T15:08:43.110Z,5.63
2018-12-04T15:12:51.415Z,7.33
2018-12-04T15:17:05.808Z,9.70
2018-12-04T15:21:14.188Z,11.30
2018-12-04T15:25:22.572Z,5.40
2018-12-04T15:29:30.905Z,10.80
2018-12-04T15:33:39.201Z,9.77
2018-12-04T15:37:47.632Z,11.57
2018-12-04T15:41:55.961Z,5.67
2018-12-04T15:46:04.248Z,11.53
2018-12-04T15:50:12.589Z,7.50
2018-12-04T15:54:20.951Z,10.67
2018-12-04T15:58:29.243Z,8.97
2018-12-04T16:02:37.534Z,8.80
2018-12-04T16:06:45.833Z,12.90
2018-12-04T16:10:54.083Z,6.30
2018-12-04T16:15:02.364Z,13.67
2018-12-04T16:19:10.637Z,9.97
2018-12-04T16:23:18.930Z,8.53
2018-12-04T16:27:27.234Z,10.73
2018-12-04T16:31:35.511Z,7.37
2018-12-04T16:35:43.819Z,12.30
2018-12-04T16:39:52.238Z,15.63
2018-12-04T16:44:00.527Z,7.73
2018-12-04T16:48:09.979Z,5.73
2018-12-04T16:52:18.249Z,8.20
2018-12-04T16:56:26.591Z,7.77
2018-12-04T17:00:34.903Z,10.20
2018-12-04T17:04:43.197Z,11.60
2018-12-04T17:08:51.500Z,8.67
2018-12-04T17:12:59.764Z,10.00
2018-12-04T17:17:08.223Z,9.97
2018-12-04T17:21:17.623Z,10.90
2018-12-04T17:25:25.939Z,14.43
2018-12-04T17:29:34.261Z,8.57
2018-12-04T17:33:44.882Z,12.47
2018-12-04T17:37:53.179Z,7.53
2018-12-04T17:42:01.474Z,13.40
2018-12-04T17:46:09.775Z,14.73
2018-12-04T17:50:18.077Z,8.60
2018-12-04T17:54:26.372Z,8.47
2018-12-04T17:58:34.695Z,9.73
2018-12-04T18:02:43.043Z,16.70
2018-12-04T18:06:51.113Z,12.60
2018-12-04T18:10:59.425Z,11.33
2018-12-04T18:15:08.039Z,13.60
2018-12-04T18:19:16.422Z,12.90
2018-12-04T18:23:24.720Z,10.00
2018-12-04T18:27:33.036Z,11.90
2018-12-04T18:31:41.320Z,21.10
2018-12-04T18:35:49.841Z,10.23
2018-12-04T18:39:58.127Z,10.33
2018-12-04T18:44:06.436Z,18.53
2018-12-04T18:48:14.815Z,12.03
2018-12-04T18:52:23.876Z,9.10
2018-12-04T18:56:31.967Z,9.20
2018-12-04T19:00:40.335Z,16.87
2018-12-04T19:04:48.642Z,14.83
2018-12-04T19:08:56.929Z,10.83
2018-12-04T19:13:05.251Z,13.80
2018-12-04T19:17:13.565Z,14.40
2018-12-04T19:21:22.652Z,11.07
2018-12-04T19:25:30.969Z,11.50
2018-12-04T19:29:39.408Z,16.07
2018-12-04T19:33:47.830Z,11.53
2018-12-04T19:37:56.146Z,14.50
2018-12-04T19:42:04.447Z,15.60
2018-12-04T19:46:13.007Z,16.97
2018-12-04T19:50:21.585Z,12.60
2018-12-04T19:54:29.893Z,11.77
2018-12-04T19:58:38.170Z,13.27
2018-12-04T20:02:46.488Z,11.97
2018-12-04T20:06:54.874Z,16.07
2018-12-04T20:11:03.203Z,14.90
2018-12-04T20:15:11.508Z,16.50
2018-12-04T20:19:19.825Z,18.03
2018-12-04T20:23:28.182Z,15.23
2018-12-04T20:27:36.488Z,15.27
2018-12-04T20:31:45.079Z,19.80
2018-12-04T20:35:53.463Z,12.67
2018-12-04T20:40:02.001Z,14.67
2018-12-04T20:44:10.379Z,12.40
2018-12-04T20:48:18.765Z,13.60
2018-12-04T20:52:27.122Z,17.00
2018-12-04T20:56:35.507Z,14.03
2018-12-04T21:00:43.922Z,15.40
2018-12-04T21:04:52.312Z,13.73
2018-12-04T21:09:00.855Z,15.67
2018-12-04T21:13:14.422Z,16.20
2018-12-04T21:17:17.477Z,17.53
2018-12-04T21:21:25.835Z,14.57
2018-12-04T21:25:34.157Z,16.10
2018-12-04T21:29:47.561Z,14.10
2018-12-04T21:34:01.151Z,23.53
2018-12-04T21:38:14.767Z,17.10
2018-12-04T21:42:28.431Z,15.90
2018-12-04T21:46:42.207Z,23.53
2018-12-04T21:50:50.544Z,19.47
2018-12-04T21:54:58.857Z,16.67
2018-12-04T21:59:07.176Z,15.23
2018-12-04T22:03:15.551Z,20.43
2018-12-04T22:07:23.874Z,17.33
2018-12-04T22:11:32.149Z,17.03
2018-12-04T22:15:40.431Z,18.33
2018-12-04T22:19:48.746Z,18.10
2018-12-04T22:23:57.019Z,14.23
2018-12-04T22:28:05.362Z,14.23
2018-12-04T22:32:13.676Z,13.80
2018-12-04T22:36:22.069Z,17.70
2018-12-04T22:40:30.332Z,19.60
2018-12-04T22:44:38.644Z,20.20
2018-12-04T22:48:46.979Z,16.90
2018-12-04T22:52:55.272Z,17.80
2018-12-04T22:57:03.657Z,14.47
2018-12-04T23:01:12.033Z,14.70
2018-12-04T23:05:20.421Z,16.87
2018-12-04T23:09:28.949Z,21.17
2018-12-04T23:13:37.281Z,21.60
2018-12-04T23:17:45.546Z,17.67
2018-12-04T23:21:54.631Z,17.80
2018-12-04T23:26:02.950Z,21.00
2018-12-04T23:30:11.361Z,19.30
2018-12-04T23:34:19.680Z,16.90
2018-12-04T23:38:28.000Z,28.90
2018-12-04T23:42:36.265Z,21.63
2018-12-04T23:46:44.572Z,18.57
2018-12-04T23:50:52.904Z,17.43
2018-12-04T23:55:01.131Z,18.80
2018-12-04T23:59:09.420Z,18.00
